• Join FlightAware (Why Join?)
  • Login
  • US Flag 
10:43AM EST


 

Airport Tracker/Info


-or-


 

Live Flight TrackerFlight Track Log ✈ EJA831 ✈ 18 de Jul de 2013 ✈ KTEB - KPVC

Flight Track Log - Related Links

Times and Time Zones

All times are in EDT time to prevent confusion due to time zone crossing. See the EJA831 flight status page for this flight to view local times or setup timezone preferences in your user account.

Time Position Orientation Groundspeed Altitude Reporting Facility
EDT Latitude Longitude Course Direction KTS MPH feet Rate Location/Type
04:18PM 40.8167 -74.1333 270° West 209 241 1,600  Level New York TRACON
04:19PM 40.8167 -74.2167 270° West 222 255 3,800 2,160 Climbing New York TRACON
04:20PM 40.8667 -74.2667 323° Northwest 265 305 6,000 1,140 Climbing New York TRACON
04:21PM 40.9333 -74.2500 11° North 282 325 6,100  Climbing New York TRACON
04:22PM 41.0000 -74.2167 21° North 275 316 6,100  Level New York TRACON
04:23PM 41.0833 -74.1833 17° North 282 325 6,100 60 Level New York TRACON
04:24PM 41.1333 -74.1333 37° Northeast 284 327 6,300 1,440 Climbing New York TRACON
04:25PM 41.1667 -74.0167 69° East 298 343 9,000 1,260 Climbing New York TRACON
04:26PM 41.2000 -73.9167 66° East 305 351 9,000  Level New York TRACON
04:27PM 41.2167 -73.8333 75° East 304 350 9,000  Level New York TRACON
04:28PM 41.2500 -73.7000 72° East 305 351 9,100  Climbing New York TRACON
04:29PM 41.2667 -73.6167 75° East 302 348 9,000  Descending New York TRACON
04:30PM 41.3000 -73.5167 66° East 300 345 9,100  Climbing New York TRACON
04:31PM 41.3333 -73.4167 66° East 300 345 9,000 -60 Descending New York TRACON
04:32PM 41.3781 -73.3031 62° Northeast 299 344 9,000  Level Boston Center
04:33PM 41.4269 -73.1683 64° Northeast 311 358 9,000  Level Boston Center
04:34PM 41.4631 -73.0633 65° Northeast 310 357 9,000  Level Boston Center
04:35PM 41.4989 -72.9583 65° Northeast 308 354 9,000 -60 Level Boston Center
04:36PM 41.5283 -72.8728 65° Northeast 307 353 8,900 -60 Descending Boston Center
04:37PM 41.5642 -72.7703 65° Northeast 308 354 8,900  Level Boston Center
04:38PM 41.6042 -72.6539 65° Northeast 308 354 9,000  Climbing Boston Center
04:39PM 41.6375 -72.5511 67° East 306 352 8,900  Descending Boston Center
04:40PM 41.6481 -72.4372 83° East 310 357 9,000  Climbing Boston Center
04:41PM 41.6564 -72.3289 84° East 311 358 9,000  Level Boston Center
04:42PM 41.6625 -72.2678 82° East 311 358 9,000  Level Boston Center
04:43PM 41.6728 -72.1539 83° East 311 358 9,000 -60 Level Boston Center
04:44PM 41.6806 -72.0369 85° East 310 357 8,900  Descending Boston Center
04:45PM 41.6864 -71.9231 86° East 311 358 9,000  Climbing Boston Center
04:46PM 41.6964 -71.8172 83° East 309 356 8,900 -60 Descending Boston Center
04:47PM 41.7039 -71.7033 85° East 310 357 8,900 -540 Level Boston Center
04:48PM 41.7114 -71.5892 85° East 303 349 7,900 -960 Descending Boston Center
04:49PM 41.7189 -71.4750 85° East 289 333 7,000 -480 Descending Boston Center
04:50PM 41.7344 -71.3581 80° East 291 335 7,000  Level Boston Center
04:51PM 41.7522 -71.2492 78° East 306 352 7,000  Level Boston Center
04:52PM 41.7617 -71.1486 83° East 296 341 7,000  Level Boston Center
04:54PM 41.7834 -70.9993 84° East  Level FlightAware Approximate
05:01PM 41.8865 -70.3646 26° Northeast  Level FlightAware Approximate
05:02PM 41.9474 -70.3193 37° Northeast  Level FlightAware Approximate
05:03PM 42.0038 -70.2638 29° Northeast  Level FlightAware Approximate
05:04PM 42.0648 -70.2181 29° Northeast  Level FlightAware Approximate
05:05PM 42.0667 -70.2167 29° Northeast  Level FlightAware Approximate